sensor_id;sensor_type;location;lat;lon;timestamp;P1;durP1;ratioP1;P2;durP2;ratioP2
39654;SDS011;25336;59.944;11.010;2022-08-01T00:01:15;3.40;;;2.83;;
39654;SDS011;25336;59.944;11.010;2022-08-01T00:03:41;3.83;;;3.42;;
39654;SDS011;25336;59.944;11.010;2022-08-01T00:06:06;3.75;;;3.45;;
39654;SDS011;25336;59.944;11.010;2022-08-01T00:08:32;3.40;;;3.10;;
39654;SDS011;25336;59.944;11.010;2022-08-01T00:10:57;3.95;;;3.60;;
39654;SDS011;25336;59.944;11.010;2022-08-01T00:13:23;4.28;;;3.10;;
39654;SDS011;25336;59.944;11.010;2022-08-01T00:15:49;5.13;;;3.90;;
39654;SDS011;25336;59.944;11.010;2022-08-01T00:18:14;4.03;;;3.63;;
39654;SDS011;25336;59.944;11.010;2022-08-01T00:20:40;5.75;;;2.75;;
39654;SDS011;25336;59.944;11.010;2022-08-01T00:23:05;4.28;;;3.42;;
39654;SDS011;25336;59.944;11.010;2022-08-01T00:25:31;5.10;;;3.28;;
39654;SDS011;25336;59.944;11.010;2022-08-01T00:27:57;3.22;;;2.80;;
39654;SDS011;25336;59.944;11.010;2022-08-01T00:30:22;3.58;;;3.28;;
39654;SDS011;25336;59.944;11.010;2022-08-01T00:32:48;6.95;;;3.83;;
39654;SDS011;25336;59.944;11.010;2022-08-01T00:35:13;3.05;;;2.75;;
39654;SDS011;25336;59.944;11.010;2022-08-01T00:37:39;4.00;;;3.03;;
39654;SDS011;25336;59.944;11.010;2022-08-01T00:40:05;3.72;;;2.78;;
39654;SDS011;25336;59.944;11.010;2022-08-01T00:42:32;3.80;;;3.40;;
39654;SDS011;25336;59.944;11.010;2022-08-01T00:44:57;3.63;;;3.05;;
39654;SDS011;25336;59.944;11.010;2022-08-01T00:47:23;4.75;;;3.30;;
39654;SDS011;25336;59.944;11.010;2022-08-01T00:49:49;3.58;;;2.97;;
39654;SDS011;25336;59.944;11.010;2022-08-01T00:52:15;3.08;;;2.85;;
39654;SDS011;25336;59.944;11.010;2022-08-01T00:54:40;3.70;;;3.40;;
39654;SDS011;25336;59.944;11.010;2022-08-01T00:57:06;3.85;;;3.55;;
39654;SDS011;25336;59.944;11.010;2022-08-01T00:59:32;6.20;;;3.70;;
39654;SDS011;25336;59.944;11.010;2022-08-01T01:01:59;4.68;;;3.60;;
39654;SDS011;25336;59.944;11.010;2022-08-01T01:04:24;4.93;;;3.38;;
39654;SDS011;25336;59.944;11.010;2022-08-01T01:09:56;4.25;;;3.80;;
39654;SDS011;25336;59.944;11.010;2022-08-01T01:20:46;3.65;;;3.30;;
39654;SDS011;25336;59.944;11.010;2022-08-01T01:26:40;4.05;;;3.65;;
39654;SDS011;25336;59.944;11.010;2022-08-01T01:29:16;5.15;;;3.67;;
39654;SDS011;25336;59.944;11.010;2022-08-01T01:31:53;3.60;;;3.30;;
39654;SDS011;25336;59.944;11.010;2022-08-01T01:34:23;3.83;;;3.08;;
39654;SDS011;25336;59.944;11.010;2022-08-01T01:36:52;4.22;;;3.75;;
39654;SDS011;25336;59.944;11.010;2022-08-01T01:39:20;4.72;;;3.67;;
39654;SDS011;25336;59.944;11.010;2022-08-01T01:41:48;4.35;;;3.85;;
39654;SDS011;25336;59.944;11.010;2022-08-01T01:44:16;4.78;;;3.50;;
39654;SDS011;25336;59.944;11.010;2022-08-01T01:46:43;4.97;;;3.60;;
39654;SDS011;25336;59.944;11.010;2022-08-01T01:49:09;6.00;;;3.72;;
39654;SDS011;25336;59.944;11.010;2022-08-01T01:51:36;4.35;;;3.60;;
39654;SDS011;25336;59.944;11.010;2022-08-01T01:54:03;4.40;;;3.67;;
39654;SDS011;25336;59.944;11.010;2022-08-01T01:56:30;3.97;;;3.65;;
39654;SDS011;25336;59.944;11.010;2022-08-01T01:58:57;4.10;;;3.75;;
39654;SDS011;25336;59.944;11.010;2022-08-01T02:01:27;4.53;;;3.30;;
39654;SDS011;25336;59.944;11.010;2022-08-01T02:03:56;4.03;;;3.50;;
39654;SDS011;25336;59.944;11.010;2022-08-01T02:06:24;5.30;;;4.00;;
39654;SDS011;25336;59.944;11.010;2022-08-01T02:08:52;4.90;;;3.78;;
39654;SDS011;25336;59.944;11.010;2022-08-01T02:11:21;3.97;;;3.65;;
39654;SDS011;25336;59.944;11.010;2022-08-01T02:13:55;4.03;;;3.70;;
39654;SDS011;25336;59.944;11.010;2022-08-01T02:16:24;3.97;;;3.63;;
39654;SDS011;25336;59.944;11.010;2022-08-01T02:18:51;5.03;;;3.92;;
39654;SDS011;25336;59.944;11.010;2022-08-01T02:21:20;3.75;;;3.40;;
39654;SDS011;25336;59.944;11.010;2022-08-01T02:24:24;5.90;;;4.15;;
39654;SDS011;25336;59.944;11.010;2022-08-01T02:27:09;3.72;;;3.42;;
39654;SDS011;25336;59.944;11.010;2022-08-01T02:29:47;3.67;;;3.38;;
39654;SDS011;25336;59.944;11.010;2022-08-01T02:32:20;4.25;;;3.60;;
39654;SDS011;25336;59.944;11.010;2022-08-01T02:34:50;3.35;;;3.05;;
39654;SDS011;25336;59.944;11.010;2022-08-01T02:37:18;3.65;;;3.17;;
39654;SDS011;25336;59.944;11.010;2022-08-01T02:39:46;3.72;;;3.47;;
39654;SDS011;25336;59.944;11.010;2022-08-01T02:42:15;3.83;;;3.50;;
39654;SDS011;25336;59.944;11.010;2022-08-01T02:44:43;3.38;;;3.05;;
39654;SDS011;25336;59.944;11.010;2022-08-01T02:47:11;4.63;;;3.92;;
39654;SDS011;25336;59.944;11.010;2022-08-01T02:49:39;3.95;;;3.60;;
39654;SDS011;25336;59.944;11.010;2022-08-01T02:52:10;4.35;;;3.58;;
39654;SDS011;25336;59.944;11.010;2022-08-01T02:54:39;6.18;;;4.03;;
39654;SDS011;25336;59.944;11.010;2022-08-01T02:57:06;5.05;;;4.13;;
39654;SDS011;25336;59.944;11.010;2022-08-01T02:59:34;4.97;;;3.63;;
39654;SDS011;25336;59.944;11.010;2022-08-01T03:02:02;4.22;;;3.92;;
39654;SDS011;25336;59.944;11.010;2022-08-01T03:04:30;4.97;;;3.65;;
39654;SDS011;25336;59.944;11.010;2022-08-01T03:06:58;4.47;;;3.72;;
39654;SDS011;25336;59.944;11.010;2022-08-01T03:09:27;4.53;;;3.70;;
39654;SDS011;25336;59.944;11.010;2022-08-01T03:11:55;3.33;;;3.03;;
39654;SDS011;25336;59.944;11.010;2022-08-01T03:14:25;4.60;;;3.40;;
39654;SDS011;25336;59.944;11.010;2022-08-01T03:16:52;4.30;;;4.00;;
39654;SDS011;25336;59.944;11.010;2022-08-01T03:19:20;4.30;;;3.90;;
39654;SDS011;25336;59.944;11.010;2022-08-01T03:21:47;4.03;;;3.70;;
39654;SDS011;25336;59.944;11.010;2022-08-01T03:24:14;4.57;;;4.20;;
39654;SDS011;25336;59.944;11.010;2022-08-01T03:26:43;3.80;;;3.42;;
39654;SDS011;25336;59.944;11.010;2022-08-01T03:29:14;4.50;;;3.67;;
39654;SDS011;25336;59.944;11.010;2022-08-01T03:31:43;3.92;;;3.60;;
39654;SDS011;25336;59.944;11.010;2022-08-01T03:34:11;4.78;;;3.28;;
39654;SDS011;25336;59.944;11.010;2022-08-01T03:36:45;5.32;;;4.03;;
39654;SDS011;25336;59.944;11.010;2022-08-01T03:39:15;4.28;;;3.80;;
39654;SDS011;25336;59.944;11.010;2022-08-01T03:41:43;4.28;;;3.50;;
39654;SDS011;25336;59.944;11.010;2022-08-01T03:44:16;3.97;;;3.67;;
39654;SDS011;25336;59.944;11.010;2022-08-01T03:46:46;3.97;;;3.67;;
39654;SDS011;25336;59.944;11.010;2022-08-01T03:49:23;4.57;;;3.58;;
39654;SDS011;25336;59.944;11.010;2022-08-01T03:51:51;4.00;;;3.70;;
39654;SDS011;25336;59.944;11.010;2022-08-01T03:54:23;3.08;;;2.42;;
39654;SDS011;25336;59.944;11.010;2022-08-01T03:56:53;3.35;;;3.10;;
39654;SDS011;25336;59.944;11.010;2022-08-01T03:59:19;4.40;;;4.00;;
39654;SDS011;25336;59.944;11.010;2022-08-01T04:01:46;3.70;;;3.40;;
39654;SDS011;25336;59.944;11.010;2022-08-01T04:04:13;3.78;;;3.47;;
39654;SDS011;25336;59.944;11.010;2022-08-01T04:06:42;5.15;;;3.88;;
39654;SDS011;25336;59.944;11.010;2022-08-01T04:09:11;4.28;;;3.72;;
39654;SDS011;25336;59.944;11.010;2022-08-01T04:11:37;4.20;;;3.50;;
39654;SDS011;25336;59.944;11.010;2022-08-01T04:14:03;3.80;;;3.53;;
39654;SDS011;25336;59.944;11.010;2022-08-01T04:16:29;5.40;;;3.67;;
39654;SDS011;25336;59.944;11.010;2022-08-01T04:18:54;6.32;;;3.80;;
39654;SDS011;25336;59.944;11.010;2022-08-01T04:21:22;3.55;;;3.03;;
39654;SDS011;25336;59.944;11.010;2022-08-01T04:26:19;3.55;;;3.25;;
39654;SDS011;25336;59.944;11.010;2022-08-01T04:28:46;3.50;;;3.20;;
39654;SDS011;25336;59.944;11.010;2022-08-01T04:31:15;3.80;;;3.50;;
39654;SDS011;25336;59.944;11.010;2022-08-01T04:33:43;3.03;;;2.83;;
39654;SDS011;25336;59.944;11.010;2022-08-01T04:36:14;3.60;;;3.30;;
39654;SDS011;25336;59.944;11.010;2022-08-01T04:38:42;3.22;;;2.97;;
39654;SDS011;25336;59.944;11.010;2022-08-01T04:41:11;3.92;;;2.80;;
39654;SDS011;25336;59.944;11.010;2022-08-01T04:43:38;2.88;;;2.67;;
39654;SDS011;25336;59.944;11.010;2022-08-01T04:46:05;3.13;;;2.83;;
39654;SDS011;25336;59.944;11.010;2022-08-01T04:48:33;2.85;;;2.65;;
39654;SDS011;25336;59.944;11.010;2022-08-01T04:51:01;3.13;;;2.92;;
39654;SDS011;25336;59.944;11.010;2022-08-01T04:53:27;3.10;;;2.90;;
39654;SDS011;25336;59.944;11.010;2022-08-01T04:55:52;4.30;;;3.38;;
39654;SDS011;25336;59.944;11.010;2022-08-01T04:58:18;3.85;;;3.58;;
39654;SDS011;25336;59.944;11.010;2022-08-01T05:00:44;4.32;;;3.63;;
39654;SDS011;25336;59.944;11.010;2022-08-01T05:03:11;4.35;;;3.22;;
39654;SDS011;25336;59.944;11.010;2022-08-01T05:05:36;4.70;;;3.80;;
39654;SDS011;25336;59.944;11.010;2022-08-01T05:08:02;3.20;;;2.90;;
39654;SDS011;25336;59.944;11.010;2022-08-01T05:10:27;3.42;;;3.22;;
39654;SDS011;25336;59.944;11.010;2022-08-01T05:12:53;4.32;;;3.67;;
39654;SDS011;25336;59.944;11.010;2022-08-01T05:15:19;4.00;;;3.70;;
39654;SDS011;25336;59.944;11.010;2022-08-01T05:17:46;4.07;;;3.10;;
39654;SDS011;25336;59.944;11.010;2022-08-01T05:20:12;3.00;;;2.80;;
39654;SDS011;25336;59.944;11.010;2022-08-01T05:22:37;2.75;;;2.55;;
39654;SDS011;25336;59.944;11.010;2022-08-01T05:25:04;2.80;;;2.60;;
39654;SDS011;25336;59.944;11.010;2022-08-01T05:27:30;2.75;;;2.53;;
39654;SDS011;25336;59.944;11.010;2022-08-01T05:29:56;3.03;;;2.40;;
39654;SDS011;25336;59.944;11.010;2022-08-01T05:32:22;2.92;;;2.33;;
39654;SDS011;25336;59.944;11.010;2022-08-01T05:34:48;3.55;;;2.35;;
39654;SDS011;25336;59.944;11.010;2022-08-01T05:37:13;1.88;;;1.77;;
39654;SDS011;25336;59.944;11.010;2022-08-01T05:39:39;2.97;;;2.38;;
39654;SDS011;25336;59.944;11.010;2022-08-01T05:42:05;2.08;;;1.98;;
39654;SDS011;25336;59.944;11.010;2022-08-01T05:44:31;1.98;;;1.85;;
39654;SDS011;25336;59.944;11.010;2022-08-01T05:46:56;1.63;;;1.52;;
39654;SDS011;25336;59.944;11.010;2022-08-01T05:49:22;1.20;;;1.20;;
39654;SDS011;25336;59.944;11.010;2022-08-01T05:51:48;1.50;;;1.20;;
39654;SDS011;25336;59.944;11.010;2022-08-01T05:54:16;1.30;;;1.20;;
39654;SDS011;25336;59.944;11.010;2022-08-01T05:56:42;1.00;;;1.00;;
39654;SDS011;25336;59.944;11.010;2022-08-01T05:59:08;1.00;;;1.00;;
39654;SDS011;25336;59.944;11.010;2022-08-01T06:01:33;1.17;;;1.08;;
39654;SDS011;25336;59.944;11.010;2022-08-01T06:03:59;0.80;;;0.80;;
39654;SDS011;25336;59.944;11.010;2022-08-01T06:06:25;1.50;;;1.02;;
39654;SDS011;25336;59.944;11.010;2022-08-01T06:08:50;1.30;;;1.20;;
39654;SDS011;25336;59.944;11.010;2022-08-01T06:11:16;2.55;;;1.00;;
39654;SDS011;25336;59.944;11.010;2022-08-01T06:13:42;1.40;;;1.30;;
39654;SDS011;25336;59.944;11.010;2022-08-01T06:16:08;2.50;;;1.13;;
39654;SDS011;25336;59.944;11.010;2022-08-01T06:18:33;1.13;;;1.08;;
39654;SDS011;25336;59.944;11.010;2022-08-01T06:20:59;1.08;;;1.08;;
39654;SDS011;25336;59.944;11.010;2022-08-01T06:23:24;0.80;;;0.80;;
39654;SDS011;25336;59.944;11.010;2022-08-01T06:25:53;1.13;;;0.82;;
39654;SDS011;25336;59.944;11.010;2022-08-01T06:28:19;0.93;;;0.93;;
39654;SDS011;25336;59.944;11.010;2022-08-01T06:30:48;0.90;;;0.90;;
39654;SDS011;25336;59.944;11.010;2022-08-01T06:33:14;1.20;;;1.10;;
39654;SDS011;25336;59.944;11.010;2022-08-01T06:35:39;3.25;;;1.00;;
39654;SDS011;25336;59.944;11.010;2022-08-01T06:38:05;0.90;;;0.90;;
39654;SDS011;25336;59.944;11.010;2022-08-01T06:40:31;0.80;;;0.80;;
39654;SDS011;25336;59.944;11.010;2022-08-01T06:42:57;1.30;;;1.17;;
39654;SDS011;25336;59.944;11.010;2022-08-01T06:45:22;1.50;;;1.00;;
39654;SDS011;25336;59.944;11.010;2022-08-01T06:47:49;0.90;;;0.90;;
39654;SDS011;25336;59.944;11.010;2022-08-01T06:50:15;0.88;;;0.77;;
39654;SDS011;25336;59.944;11.010;2022-08-01T06:52:41;0.70;;;0.70;;
39654;SDS011;25336;59.944;11.010;2022-08-01T06:55:07;0.73;;;0.73;;
39654;SDS011;25336;59.944;11.010;2022-08-01T06:57:33;1.05;;;0.70;;
39654;SDS011;25336;59.944;11.010;2022-08-01T07:00:01;0.63;;;0.63;;
39654;SDS011;25336;59.944;11.010;2022-08-01T07:02:35;0.47;;;0.47;;
39654;SDS011;25336;59.944;11.010;2022-08-01T07:05:01;0.90;;;0.80;;
39654;SDS011;25336;59.944;11.010;2022-08-01T07:07:29;1.02;;;0.93;;
39654;SDS011;25336;59.944;11.010;2022-08-01T07:09:55;1.05;;;0.60;;
39654;SDS011;25336;59.944;11.010;2022-08-01T07:12:20;1.33;;;0.80;;
39654;SDS011;25336;59.944;11.010;2022-08-01T07:14:46;3.35;;;1.02;;
39654;SDS011;25336;59.944;11.010;2022-08-01T07:17:12;0.70;;;0.70;;
39654;SDS011;25336;59.944;11.010;2022-08-01T07:19:37;0.80;;;0.80;;
39654;SDS011;25336;59.944;11.010;2022-08-01T07:22:03;0.60;;;0.60;;
39654;SDS011;25336;59.944;11.010;2022-08-01T07:24:29;0.70;;;0.70;;
39654;SDS011;25336;59.944;11.010;2022-08-01T07:26:54;0.75;;;0.75;;
39654;SDS011;25336;59.944;11.010;2022-08-01T07:29:23;0.85;;;0.85;;
39654;SDS011;25336;59.944;11.010;2022-08-01T07:31:49;0.70;;;0.70;;
39654;SDS011;25336;59.944;11.010;2022-08-01T07:34:15;0.82;;;0.70;;
39654;SDS011;25336;59.944;11.010;2022-08-01T07:36:41;0.73;;;0.70;;
39654;SDS011;25336;59.944;11.010;2022-08-01T07:39:06;0.73;;;0.73;;
39654;SDS011;25336;59.944;11.010;2022-08-01T07:41:32;0.60;;;0.60;;
39654;SDS011;25336;59.944;11.010;2022-08-01T07:43:58;1.02;;;0.70;;
39654;SDS011;25336;59.944;11.010;2022-08-01T07:46:23;2.53;;;0.68;;
39654;SDS011;25336;59.944;11.010;2022-08-01T07:48:49;0.88;;;0.88;;
39654;SDS011;25336;59.944;11.010;2022-08-01T07:51:14;0.80;;;0.80;;
39654;SDS011;25336;59.944;11.010;2022-08-01T07:53:42;0.70;;;0.70;;
39654;SDS011;25336;59.944;11.010;2022-08-01T07:56:08;0.77;;;0.77;;
39654;SDS011;25336;59.944;11.010;2022-08-01T07:58:34;0.70;;;0.70;;
39654;SDS011;25336;59.944;11.010;2022-08-01T08:01:00;1.23;;;0.70;;
39654;SDS011;25336;59.944;11.010;2022-08-01T08:03:25;0.50;;;0.50;;
39654;SDS011;25336;59.944;11.010;2022-08-01T08:05:51;4.03;;;0.95;;
39654;SDS011;25336;59.944;11.010;2022-08-01T08:08:17;0.60;;;0.60;;
39654;SDS011;25336;59.944;11.010;2022-08-01T08:10:43;0.75;;;0.73;;
39654;SDS011;25336;59.944;11.010;2022-08-01T08:13:09;1.85;;;1.50;;
39654;SDS011;25336;59.944;11.010;2022-08-01T08:15:34;2.63;;;1.33;;
39654;SDS011;25336;59.944;11.010;2022-08-01T08:18:00;0.75;;;0.75;;
39654;SDS011;25336;59.944;11.010;2022-08-01T08:20:27;0.90;;;0.90;;
39654;SDS011;25336;59.944;11.010;2022-08-01T08:22:56;1.77;;;0.82;;
39654;SDS011;25336;59.944;11.010;2022-08-01T08:25:23;1.27;;;0.95;;
39654;SDS011;25336;59.944;11.010;2022-08-01T08:27:49;0.70;;;0.70;;
39654;SDS011;25336;59.944;11.010;2022-08-01T08:30:15;0.80;;;0.80;;
39654;SDS011;25336;59.944;11.010;2022-08-01T08:32:41;0.80;;;0.77;;
39654;SDS011;25336;59.944;11.010;2022-08-01T08:35:07;1.15;;;1.00;;
39654;SDS011;25336;59.944;11.010;2022-08-01T08:37:34;0.82;;;0.82;;
39654;SDS011;25336;59.944;11.010;2022-08-01T08:40:00;0.77;;;0.77;;
39654;SDS011;25336;59.944;11.010;2022-08-01T08:42:26;1.48;;;0.90;;
39654;SDS011;25336;59.944;11.010;2022-08-01T08:44:52;1.85;;;1.30;;
39654;SDS011;25336;59.944;11.010;2022-08-01T08:47:20;0.90;;;0.90;;
39654;SDS011;25336;59.944;11.010;2022-08-01T08:49:48;1.17;;;0.75;;
39654;SDS011;25336;59.944;11.010;2022-08-01T08:52:21;1.73;;;0.98;;
39654;SDS011;25336;59.944;11.010;2022-08-01T08:54:48;0.75;;;0.75;;
39654;SDS011;25336;59.944;11.010;2022-08-01T08:57:15;1.15;;;1.00;;
39654;SDS011;25336;59.944;11.010;2022-08-01T08:59:43;1.30;;;0.85;;
39654;SDS011;25336;59.944;11.010;2022-08-01T09:02:09;1.15;;;1.05;;
39654;SDS011;25336;59.944;11.010;2022-08-01T09:04:36;0.95;;;0.70;;
39654;SDS011;25336;59.944;11.010;2022-08-01T09:07:04;0.90;;;0.90;;
39654;SDS011;25336;59.944;11.010;2022-08-01T09:09:30;1.40;;;1.00;;
39654;SDS011;25336;59.944;11.010;2022-08-01T09:11:57;0.80;;;0.80;;
39654;SDS011;25336;59.944;11.010;2022-08-01T09:14:22;0.70;;;0.70;;
39654;SDS011;25336;59.944;11.010;2022-08-01T09:17:00;0.93;;;0.70;;
39654;SDS011;25336;59.944;11.010;2022-08-01T09:19:35;1.20;;;0.80;;
39654;SDS011;25336;59.944;11.010;2022-08-01T09:22:04;3.85;;;0.90;;
39654;SDS011;25336;59.944;11.010;2022-08-01T09:24:32;0.75;;;0.75;;
39654;SDS011;25336;59.944;11.010;2022-08-01T09:26:58;0.63;;;0.63;;
39654;SDS011;25336;59.944;11.010;2022-08-01T09:29:30;1.05;;;0.63;;
39654;SDS011;25336;59.944;11.010;2022-08-01T09:31:56;0.90;;;0.90;;
39654;SDS011;25336;59.944;11.010;2022-08-01T09:34:33;0.82;;;0.82;;
39654;SDS011;25336;59.944;11.010;2022-08-01T09:36:59;1.60;;;0.60;;
39654;SDS011;25336;59.944;11.010;2022-08-01T09:39:30;0.65;;;0.60;;
39654;SDS011;25336;59.944;11.010;2022-08-01T09:41:59;1.52;;;0.80;;
39654;SDS011;25336;59.944;11.010;2022-08-01T09:44:40;0.90;;;0.90;;
39654;SDS011;25336;59.944;11.010;2022-08-01T09:47:12;0.88;;;0.88;;
39654;SDS011;25336;59.944;11.010;2022-08-01T09:49:39;0.50;;;0.50;;
39654;SDS011;25336;59.944;11.010;2022-08-01T09:52:15;1.83;;;0.57;;
39654;SDS011;25336;59.944;11.010;2022-08-01T09:54:51;0.70;;;0.65;;
39654;SDS011;25336;59.944;11.010;2022-08-01T09:57:19;1.10;;;0.50;;
39654;SDS011;25336;59.944;11.010;2022-08-01T09:59:46;0.63;;;0.50;;
39654;SDS011;25336;59.944;11.010;2022-08-01T10:02:26;1.77;;;0.50;;
39654;SDS011;25336;59.944;11.010;2022-08-01T10:05:03;0.43;;;0.43;;
39654;SDS011;25336;59.944;11.010;2022-08-01T10:07:31;2.72;;;0.90;;
39654;SDS011;25336;59.944;11.010;2022-08-01T10:10:10;1.60;;;0.80;;
39654;SDS011;25336;59.944;11.010;2022-08-01T10:12:37;0.65;;;0.63;;
39654;SDS011;25336;59.944;11.010;2022-08-01T10:15:04;0.50;;;0.50;;
39654;SDS011;25336;59.944;11.010;2022-08-01T10:17:31;0.88;;;0.50;;
39654;SDS011;25336;59.944;11.010;2022-08-01T10:19:59;0.70;;;0.70;;
39654;SDS011;25336;59.944;11.010;2022-08-01T10:22:27;1.75;;;0.52;;
39654;SDS011;25336;59.944;11.010;2022-08-01T10:24:55;0.70;;;0.40;;
39654;SDS011;25336;59.944;11.010;2022-08-01T10:27:24;0.50;;;0.50;;
39654;SDS011;25336;59.944;11.010;2022-08-01T10:29:58;2.03;;;0.50;;
39654;SDS011;25336;59.944;11.010;2022-08-01T10:32:35;0.50;;;0.50;;
39654;SDS011;25336;59.944;11.010;2022-08-01T10:35:02;4.00;;;0.52;;
39654;SDS011;25336;59.944;11.010;2022-08-01T10:37:29;0.55;;;0.50;;
39654;SDS011;25336;59.944;11.010;2022-08-01T10:39:55;0.40;;;0.40;;
39654;SDS011;25336;59.944;11.010;2022-08-01T10:42:21;0.95;;;0.40;;
39654;SDS011;25336;59.944;11.010;2022-08-01T10:44:47;0.60;;;0.60;;
39654;SDS011;25336;59.944;11.010;2022-08-01T10:47:14;0.50;;;0.50;;
39654;SDS011;25336;59.944;11.010;2022-08-01T10:49:43;1.48;;;0.60;;
39654;SDS011;25336;59.944;11.010;2022-08-01T10:52:19;0.40;;;0.40;;
39654;SDS011;25336;59.944;11.010;2022-08-01T10:54:45;0.75;;;0.38;;
39654;SDS011;25336;59.944;11.010;2022-08-01T10:57:12;0.95;;;0.50;;
39654;SDS011;25336;59.944;11.010;2022-08-01T10:59:48;0.75;;;0.40;;
39654;SDS011;25336;59.944;11.010;2022-08-01T11:02:33;0.60;;;0.60;;
39654;SDS011;25336;59.944;11.010;2022-08-01T11:05:12;0.50;;;0.50;;
39654;SDS011;25336;59.944;11.010;2022-08-01T11:07:47;3.72;;;0.50;;
39654;SDS011;25336;59.944;11.010;2022-08-01T11:13:00;1.15;;;0.40;;
39654;SDS011;25336;59.944;11.010;2022-08-01T11:15:28;1.23;;;0.55;;
39654;SDS011;25336;59.944;11.010;2022-08-01T11:17:54;0.73;;;0.40;;
39654;SDS011;25336;59.944;11.010;2022-08-01T11:30:43;0.32;;;0.32;;
39654;SDS011;25336;59.944;11.010;2022-08-01T11:33:10;0.35;;;0.35;;
39654;SDS011;25336;59.944;11.010;2022-08-01T11:35:38;0.30;;;0.30;;
39654;SDS011;25336;59.944;11.010;2022-08-01T11:38:36;0.40;;;0.40;;
39654;SDS011;25336;59.944;11.010;2022-08-01T11:43:34;0.30;;;0.30;;
39654;SDS011;25336;59.944;11.010;2022-08-01T11:46:00;2.10;;;0.43;;
39654;SDS011;25336;59.944;11.010;2022-08-01T11:48:26;0.30;;;0.30;;
39654;SDS011;25336;59.944;11.010;2022-08-01T11:50:56;0.50;;;0.30;;
39654;SDS011;25336;59.944;11.010;2022-08-01T11:53:22;0.52;;;0.30;;
39654;SDS011;25336;59.944;11.010;2022-08-01T11:55:51;0.30;;;0.30;;
39654;SDS011;25336;59.944;11.010;2022-08-01T11:58:22;0.80;;;0.50;;
39654;SDS011;25336;59.944;11.010;2022-08-01T12:00:49;0.25;;;0.25;;
39654;SDS011;25336;59.944;11.010;2022-08-01T12:05:52;1.35;;;0.50;;
39654;SDS011;25336;59.944;11.010;2022-08-01T12:08:26;0.70;;;0.55;;
39654;SDS011;25336;59.944;11.010;2022-08-01T12:10:58;1.90;;;0.65;;
39654;SDS011;25336;59.944;11.010;2022-08-01T12:13:24;0.30;;;0.30;;
39654;SDS011;25336;59.944;11.010;2022-08-01T12:15:51;3.85;;;0.60;;
39654;SDS011;25336;59.944;11.010;2022-08-01T12:18:18;0.68;;;0.30;;
39654;SDS011;25336;59.944;11.010;2022-08-01T12:20:45;0.32;;;0.32;;
39654;SDS011;25336;59.944;11.010;2022-08-01T12:23:12;0.50;;;0.20;;
39654;SDS011;25336;59.944;11.010;2022-08-01T12:25:39;0.70;;;0.40;;
39654;SDS011;25336;59.944;11.010;2022-08-01T12:28:08;0.80;;;0.30;;
39654;SDS011;25336;59.944;11.010;2022-08-01T12:30:35;2.05;;;0.30;;
39654;SDS011;25336;59.944;11.010;2022-08-01T12:33:06;0.40;;;0.40;;
39654;SDS011;25336;59.944;11.010;2022-08-01T12:35:34;0.20;;;0.20;;
39654;SDS011;25336;59.944;11.010;2022-08-01T12:38:20;0.40;;;0.25;;
39654;SDS011;25336;59.944;11.010;2022-08-01T12:40:52;0.25;;;0.25;;
39654;SDS011;25336;59.944;11.010;2022-08-01T12:43:18;0.20;;;0.20;;
39654;SDS011;25336;59.944;11.010;2022-08-01T12:45:45;0.30;;;0.30;;
39654;SDS011;25336;59.944;11.010;2022-08-01T12:48:12;0.30;;;0.30;;
39654;SDS011;25336;59.944;11.010;2022-08-01T12:50:42;0.30;;;0.30;;
39654;SDS011;25336;59.944;11.010;2022-08-01T12:53:10;1.42;;;0.30;;
39654;SDS011;25336;59.944;11.010;2022-08-01T12:55:52;0.52;;;0.32;;
39654;SDS011;25336;59.944;11.010;2022-08-01T12:58:20;0.30;;;0.30;;
39654;SDS011;25336;59.944;11.010;2022-08-01T13:00:47;0.38;;;0.35;;
39654;SDS011;25336;59.944;11.010;2022-08-01T13:03:19;2.47;;;0.40;;
39654;SDS011;25336;59.944;11.010;2022-08-01T13:05:46;0.70;;;0.30;;
39654;SDS011;25336;59.944;11.010;2022-08-01T13:08:17;0.30;;;0.20;;
39654;SDS011;25336;59.944;11.010;2022-08-01T13:10:45;0.47;;;0.32;;
39654;SDS011;25336;59.944;11.010;2022-08-01T13:13:11;0.65;;;0.30;;
39654;SDS011;25336;59.944;11.010;2022-08-01T13:15:38;0.93;;;0.50;;
39654;SDS011;25336;59.944;11.010;2022-08-01T13:18:25;0.40;;;0.40;;
39654;SDS011;25336;59.944;11.010;2022-08-01T13:29:07;0.30;;;0.30;;
39654;SDS011;25336;59.944;11.010;2022-08-01T13:31:35;0.20;;;0.20;;
39654;SDS011;25336;59.944;11.010;2022-08-01T13:34:03;0.50;;;0.30;;
39654;SDS011;25336;59.944;11.010;2022-08-01T13:36:29;0.20;;;0.20;;
39654;SDS011;25336;59.944;11.010;2022-08-01T13:38:56;0.30;;;0.30;;
39654;SDS011;25336;59.944;11.010;2022-08-01T13:41:43;0.43;;;0.20;;
39654;SDS011;25336;59.944;11.010;2022-08-01T13:44:10;0.20;;;0.20;;
39654;SDS011;25336;59.944;11.010;2022-08-01T13:46:36;0.30;;;0.30;;
39654;SDS011;25336;59.944;11.010;2022-08-01T13:49:03;0.40;;;0.22;;
39654;SDS011;25336;59.944;11.010;2022-08-01T13:51:30;0.60;;;0.30;;
39654;SDS011;25336;59.944;11.010;2022-08-01T13:53:56;0.30;;;0.30;;
39654;SDS011;25336;59.944;11.010;2022-08-01T13:56:22;0.80;;;0.20;;
39654;SDS011;25336;59.944;11.010;2022-08-01T13:58:48;0.43;;;0.30;;
39654;SDS011;25336;59.944;11.010;2022-08-01T14:01:14;0.80;;;0.20;;
39654;SDS011;25336;59.944;11.010;2022-08-01T14:03:40;0.47;;;0.30;;
39654;SDS011;25336;59.944;11.010;2022-08-01T14:06:05;0.20;;;0.20;;
39654;SDS011;25336;59.944;11.010;2022-08-01T14:08:31;0.35;;;0.30;;
39654;SDS011;25336;59.944;11.010;2022-08-01T14:10:57;0.20;;;0.20;;
39654;SDS011;25336;59.944;11.010;2022-08-01T14:13:24;10.55;;;0.35;;
39654;SDS011;25336;59.944;11.010;2022-08-01T14:15:53;0.52;;;0.20;;
39654;SDS011;25336;59.944;11.010;2022-08-01T14:18:18;0.20;;;0.20;;
39654;SDS011;25336;59.944;11.010;2022-08-01T14:20:44;0.65;;;0.20;;
39654;SDS011;25336;59.944;11.010;2022-08-01T14:23:10;0.20;;;0.20;;
39654;SDS011;25336;59.944;11.010;2022-08-01T14:25:36;1.05;;;0.30;;
39654;SDS011;25336;59.944;11.010;2022-08-01T14:28:03;5.25;;;0.20;;
39654;SDS011;25336;59.944;11.010;2022-08-01T14:30:28;0.20;;;0.20;;
39654;SDS011;25336;59.944;11.010;2022-08-01T14:32:54;0.50;;;0.30;;
39654;SDS011;25336;59.944;11.010;2022-08-01T14:35:20;0.98;;;0.20;;
39654;SDS011;25336;59.944;11.010;2022-08-01T14:37:46;0.38;;;0.22;;
39654;SDS011;25336;59.944;11.010;2022-08-01T14:40:11;0.35;;;0.35;;
39654;SDS011;25336;59.944;11.010;2022-08-01T14:42:38;0.68;;;0.30;;
39654;SDS011;25336;59.944;11.010;2022-08-01T14:45:04;0.25;;;0.20;;
39654;SDS011;25336;59.944;11.010;2022-08-01T14:47:40;0.20;;;0.20;;
39654;SDS011;25336;59.944;11.010;2022-08-01T14:50:08;0.57;;;0.50;;
39654;SDS011;25336;59.944;11.010;2022-08-01T14:52:35;0.30;;;0.30;;
39654;SDS011;25336;59.944;11.010;2022-08-01T14:55:03;0.20;;;0.20;;
39654;SDS011;25336;59.944;11.010;2022-08-01T14:57:30;4.85;;;0.22;;
39654;SDS011;25336;59.944;11.010;2022-08-01T14:59:56;0.40;;;0.22;;
39654;SDS011;25336;59.944;11.010;2022-08-01T15:02:22;0.38;;;0.30;;
39654;SDS011;25336;59.944;11.010;2022-08-01T15:04:48;0.20;;;0.20;;
39654;SDS011;25336;59.944;11.010;2022-08-01T15:07:14;0.75;;;0.20;;
39654;SDS011;25336;59.944;11.010;2022-08-01T15:09:40;0.50;;;0.30;;
39654;SDS011;25336;59.944;11.010;2022-08-01T15:12:07;0.20;;;0.20;;
39654;SDS011;25336;59.944;11.010;2022-08-01T15:14:33;1.80;;;0.60;;
39654;SDS011;25336;59.944;11.010;2022-08-01T15:17:15;0.40;;;0.20;;
39654;SDS011;25336;59.944;11.010;2022-08-01T15:19:54;0.30;;;0.30;;
39654;SDS011;25336;59.944;11.010;2022-08-01T15:22:21;0.20;;;0.20;;